createdAt,value
2017-09-28T00:00:01.045Z,1016.75
2017-09-28T00:01:54.035Z,1016.77
2017-09-28T00:02:54.095Z,1016.76
2017-09-28T00:04:47.105Z,1016.80
2017-09-28T00:05:47.147Z,1016.81
2017-09-28T00:07:40.161Z,1016.82
2017-09-28T00:08:40.191Z,1016.87
2017-09-28T00:10:33.182Z,1016.91
2017-09-28T00:11:33.271Z,1016.87
2017-09-28T00:13:26.247Z,1016.91
2017-09-28T00:14:26.298Z,1016.91
2017-09-28T00:16:19.279Z,1016.89
2017-09-28T00:17:19.361Z,1016.87
2017-09-28T00:19:12.347Z,1016.87
2017-09-28T00:20:12.385Z,1016.88
2017-09-28T00:22:05.375Z,1016.85
2017-09-28T00:23:05.435Z,1016.87
2017-09-28T00:24:58.444Z,1016.84
2017-09-28T00:25:58.485Z,1016.88
2017-09-28T00:27:51.509Z,1016.89
2017-09-28T00:28:51.535Z,1016.89
2017-09-28T00:30:44.522Z,1016.90
2017-09-28T00:31:44.584Z,1016.93
2017-09-28T00:33:37.594Z,1016.90
2017-09-28T00:34:37.632Z,1016.90
2017-09-28T00:36:30.623Z,1016.89
2017-09-28T00:37:30.681Z,1016.89
2017-09-28T00:39:23.687Z,1016.87
2017-09-28T00:40:23.730Z,1016.86
2017-09-28T00:42:16.719Z,1016.85
2017-09-28T00:43:16.795Z,1016.85
2017-09-28T00:45:09.788Z,1016.85
2017-09-28T00:46:09.829Z,1016.83
2017-09-28T00:48:02.836Z,1016.84
2017-09-28T00:49:02.878Z,1016.82
2017-09-28T00:50:55.868Z,1016.84
2017-09-28T00:51:55.959Z,1016.83
2017-09-28T00:53:48.934Z,1016.79
2017-09-28T00:54:48.975Z,1016.80
2017-09-28T00:56:41.965Z,1016.78
2017-09-28T00:57:42.026Z,1016.78
2017-09-28T00:59:35.037Z,1016.78
2017-09-28T01:00:35.076Z,1016.78
2017-09-28T01:02:28.066Z,1016.75
2017-09-28T01:03:28.124Z,1016.76
2017-09-28T01:05:21.132Z,1016.74
2017-09-28T01:06:21.173Z,1016.72
2017-09-28T01:08:14.216Z,1016.70
2017-09-28T01:09:14.228Z,1016.71
2017-09-28T01:11:07.215Z,1016.73
2017-09-28T01:12:07.272Z,1016.74
2017-09-28T01:14:00.280Z,1016.71
2017-09-28T01:15:00.323Z,1016.75
2017-09-28T01:16:53.310Z,1016.73
2017-09-28T01:17:53.371Z,1016.73
2017-09-28T01:19:46.380Z,1016.69
2017-09-28T01:20:46.421Z,1016.68
2017-09-28T01:22:39.406Z,1016.66
2017-09-28T01:23:39.472Z,1016.69
2017-09-28T01:25:32.475Z,1016.72
2017-09-28T01:26:32.516Z,1016.68
2017-09-28T01:28:25.531Z,1016.71
2017-09-28T01:29:25.566Z,1016.68
2017-09-28T01:31:18.554Z,1016.70
2017-09-28T01:32:18.613Z,1016.66
2017-09-28T01:34:11.628Z,1016.65
2017-09-28T01:35:11.669Z,1016.67
2017-09-28T01:37:04.659Z,1016.66
2017-09-28T01:38:04.721Z,1016.64
2017-09-28T01:39:57.733Z,1016.65
2017-09-28T01:40:57.774Z,1016.66
2017-09-28T01:42:50.762Z,1016.63
2017-09-28T01:43:50.821Z,1016.67
2017-09-28T01:45:43.830Z,1016.62
2017-09-28T01:46:43.871Z,1016.63
2017-09-28T01:48:36.900Z,1016.62
2017-09-28T01:49:36.918Z,1016.60
2017-09-28T01:51:29.908Z,1016.59
2017-09-28T01:52:29.969Z,1016.57
2017-09-28T01:54:22.979Z,1016.55
2017-09-28T01:55:23.018Z,1016.58
2017-09-28T01:57:16.012Z,1016.56
2017-09-28T01:58:16.077Z,1016.55
2017-09-28T02:00:09.079Z,1016.54
2017-09-28T02:01:09.117Z,1016.52
2017-09-28T02:03:02.108Z,1016.53
2017-09-28T02:04:02.165Z,1016.56
2017-09-28T02:05:55.172Z,1016.51
2017-09-28T02:06:55.213Z,1016.50
2017-09-28T02:08:48.227Z,1016.43
2017-09-28T02:09:48.262Z,1016.48
2017-09-28T02:11:41.252Z,1016.48
2017-09-28T02:12:41.309Z,1016.48
2017-09-28T02:14:34.327Z,1016.45
2017-09-28T02:15:34.358Z,1016.47
2017-09-28T02:17:27.347Z,1016.56
2017-09-28T02:18:27.405Z,1016.55
2017-09-28T02:20:20.413Z,1016.57
2017-09-28T02:21:20.454Z,1016.60
2017-09-28T02:23:13.446Z,1016.56
2017-09-28T02:24:13.505Z,1016.54
2017-09-28T02:26:06.517Z,1016.55
2017-09-28T02:27:06.554Z,1016.57
2017-09-28T02:28:59.564Z,1016.61
2017-09-28T02:29:59.603Z,1016.56
2017-09-28T02:31:52.593Z,1016.61
2017-09-28T02:32:52.652Z,1016.58
2017-09-28T02:34:45.661Z,1016.56
2017-09-28T02:35:45.701Z,1016.59
2017-09-28T02:37:38.685Z,1016.58
2017-09-28T02:38:38.747Z,1016.54
2017-09-28T02:40:31.756Z,1016.49
2017-09-28T02:41:31.798Z,1016.52
2017-09-28T02:43:24.786Z,1016.53
2017-09-28T02:44:24.846Z,1016.48
2017-09-28T02:46:17.857Z,1016.50
2017-09-28T02:47:17.894Z,1016.51
2017-09-28T02:49:10.908Z,1016.53
2017-09-28T02:50:10.942Z,1016.55
2017-09-28T02:52:03.941Z,1016.59
2017-09-28T02:53:04.004Z,1016.60
2017-09-28T02:54:57.044Z,1016.68
2017-09-28T02:55:57.048Z,1016.69
2017-09-28T02:57:50.038Z,1016.67
2017-09-28T02:58:50.098Z,1016.69
2017-09-28T03:00:43.110Z,1016.71
2017-09-28T03:01:43.154Z,1016.74
2017-09-28T03:03:36.141Z,1016.70
2017-09-28T03:04:36.203Z,1016.66
2017-09-28T03:06:29.209Z,1016.65
2017-09-28T03:07:29.252Z,1016.64
2017-09-28T03:09:22.260Z,1016.65
2017-09-28T03:10:22.299Z,1016.61
2017-09-28T03:12:15.289Z,1016.57
2017-09-28T03:13:15.348Z,1016.58
2017-09-28T03:15:08.353Z,1016.61
2017-09-28T03:16:08.394Z,1016.60
2017-09-28T03:18:01.382Z,1016.56
2017-09-28T03:19:01.441Z,1016.58
2017-09-28T03:20:54.450Z,1016.56
2017-09-28T03:21:54.488Z,1016.58
2017-09-28T03:23:47.479Z,1016.58
2017-09-28T03:24:47.537Z,1016.56
2017-09-28T03:26:40.551Z,1016.57
2017-09-28T03:27:40.593Z,1016.56
2017-09-28T03:29:33.623Z,1016.51
2017-09-28T03:30:33.643Z,1016.54
2017-09-28T03:32:26.633Z,1016.52
2017-09-28T03:33:26.692Z,1016.53
2017-09-28T03:35:19.697Z,1016.47
2017-09-28T03:36:19.740Z,1016.48
2017-09-28T03:38:12.734Z,1016.47
2017-09-28T03:39:12.797Z,1016.47
2017-09-28T03:41:05.802Z,1016.50
2017-09-28T03:42:05.842Z,1016.45
2017-09-28T03:43:58.830Z,1016.49
2017-09-28T03:44:58.894Z,1016.52
2017-09-28T03:46:51.909Z,1016.50
2017-09-28T03:47:51.951Z,1016.53
2017-09-28T03:49:44.952Z,1016.50
2017-09-28T03:50:44.995Z,1016.53
2017-09-28T03:52:38.509Z,1016.48
2017-09-28T03:53:38.550Z,1016.46
2017-09-28T03:55:31.559Z,1016.44
2017-09-28T03:56:31.602Z,1016.42
2017-09-28T03:58:24.587Z,1016.42
2017-09-28T03:59:24.645Z,1016.39
2017-09-28T04:01:17.653Z,1016.41
2017-09-28T04:02:17.694Z,1016.42
2017-09-28T04:04:10.687Z,1016.46
2017-09-28T04:05:10.750Z,1016.44
2017-09-28T04:07:03.755Z,1016.50
2017-09-28T04:08:03.798Z,1016.49
2017-09-28T04:09:56.818Z,1016.50
2017-09-28T04:10:56.846Z,1016.49
2017-09-28T04:12:49.836Z,1016.51
2017-09-28T04:13:49.899Z,1016.54
2017-09-28T04:15:42.903Z,1016.49
2017-09-28T04:16:42.943Z,1016.48
2017-09-28T04:18:35.932Z,1016.48
2017-09-28T04:19:36.004Z,1016.46
2017-09-28T04:21:28.998Z,1016.47
2017-09-28T04:22:29.048Z,1016.49
2017-09-28T04:24:22.030Z,1016.48
2017-09-28T04:25:22.092Z,1016.51
2017-09-28T04:27:15.113Z,1016.51
2017-09-28T04:28:15.149Z,1016.53
2017-09-28T04:30:08.175Z,1016.49
2017-09-28T04:31:08.202Z,1016.51
2017-09-28T04:33:01.188Z,1016.46
2017-09-28T04:34:01.252Z,1016.44
2017-09-28T04:35:54.266Z,1016.37
2017-09-28T04:36:54.299Z,1016.36
2017-09-28T04:38:47.286Z,1016.35
2017-09-28T04:39:47.348Z,1016.31
2017-09-28T04:41:40.357Z,1016.34
2017-09-28T04:42:40.396Z,1016.33
2017-09-28T04:44:33.388Z,1016.27
2017-09-28T04:45:33.448Z,1016.28
2017-09-28T04:47:26.454Z,1016.27
2017-09-28T04:48:26.494Z,1016.28
2017-09-28T04:50:19.524Z,1016.31
2017-09-28T04:51:19.549Z,1016.29
2017-09-28T04:53:13.044Z,1016.31
2017-09-28T04:54:13.105Z,1016.30
2017-09-28T04:56:06.113Z,1016.28
2017-09-28T04:57:06.158Z,1016.26
2017-09-28T04:58:59.147Z,1016.18
2017-09-28T04:59:59.217Z,1016.15
2017-09-28T05:01:52.258Z,1016.13
2017-09-28T05:02:52.280Z,1016.15
2017-09-28T05:04:45.245Z,1016.15
2017-09-28T05:05:45.306Z,1016.18
2017-09-28T05:07:38.315Z,1016.21
2017-09-28T05:08:38.357Z,1016.17
2017-09-28T05:10:31.375Z,1016.20
2017-09-28T05:11:31.404Z,1016.18
2017-09-28T05:13:24.394Z,1016.18
2017-09-28T05:14:24.470Z,1016.19
2017-09-28T05:16:17.461Z,1016.15
2017-09-28T05:17:17.504Z,1016.18
2017-09-28T05:19:10.502Z,1016.22
2017-09-28T05:20:10.558Z,1016.20
2017-09-28T05:22:04.080Z,1016.22
2017-09-28T05:23:04.116Z,1016.23
2017-09-28T05:24:57.120Z,1016.22
2017-09-28T05:25:57.190Z,1016.18
2017-09-28T05:27:50.690Z,1016.18
2017-09-28T05:28:50.728Z,1016.19
2017-09-28T05:30:43.744Z,1016.20
2017-09-28T05:31:43.794Z,1016.16
2017-09-28T05:33:36.774Z,1016.16
2017-09-28T05:34:36.826Z,1016.12
2017-09-28T05:36:29.835Z,1016.10
2017-09-28T05:37:29.876Z,1016.13
2017-09-28T05:39:22.862Z,1016.16
2017-09-28T05:40:22.922Z,1016.24
2017-09-28T05:42:15.933Z,1016.35
2017-09-28T05:43:15.973Z,1016.30
2017-09-28T05:45:08.965Z,1016.30
2017-09-28T05:46:09.027Z,1016.35
2017-09-28T05:48:02.033Z,1016.36
2017-09-28T05:49:02.073Z,1016.34
2017-09-28T05:50:55.095Z,1016.34
2017-09-28T05:51:55.123Z,1016.33
2017-09-28T05:53:48.637Z,1016.35
2017-09-28T05:54:48.682Z,1016.41
2017-09-28T05:56:41.701Z,1016.41
2017-09-28T05:57:41.733Z,1016.44
2017-09-28T05:59:34.726Z,1016.38
2017-09-28T06:00:34.786Z,1016.38
2017-09-28T06:02:27.809Z,1016.36
2017-09-28T06:03:27.831Z,1016.35
2017-09-28T06:05:20.820Z,1016.32
2017-09-28T06:06:20.900Z,1016.32
2017-09-28T06:08:13.905Z,1016.27
2017-09-28T06:09:13.941Z,1016.27
2017-09-28T06:11:06.985Z,1016.29
2017-09-28T06:12:06.999Z,1016.31
2017-09-28T06:14:00.002Z,1016.37
2017-09-28T06:15:00.062Z,1016.34
2017-09-28T06:16:53.077Z,1016.39
2017-09-28T06:17:53.117Z,1016.40
2017-09-28T06:19:46.159Z,1016.45
2017-09-28T06:20:46.170Z,1016.45
2017-09-28T06:22:39.180Z,1016.48
2017-09-28T06:23:39.222Z,1016.50
2017-09-28T06:25:32.230Z,1016.53
2017-09-28T06:26:32.275Z,1016.51
2017-09-28T06:28:25.287Z,1016.52
2017-09-28T06:29:25.334Z,1016.52
2017-09-28T06:31:18.347Z,1016.49
2017-09-28T06:32:18.376Z,1016.49
2017-09-28T06:34:11.364Z,1016.53
2017-09-28T06:35:11.423Z,1016.50
2017-09-28T06:37:04.431Z,1016.53
2017-09-28T06:38:04.487Z,1016.53
2017-09-28T06:39:57.458Z,1016.51
2017-09-28T06:40:57.527Z,1016.52
2017-09-28T06:42:50.526Z,1016.54
2017-09-28T06:43:50.582Z,1016.55
2017-09-28T06:45:43.568Z,1016.53
2017-09-28T06:46:43.618Z,1016.54
2017-09-28T06:48:36.626Z,1016.58
2017-09-28T06:49:36.666Z,1016.59
2017-09-28T06:51:29.689Z,1016.60
2017-09-28T06:52:29.718Z,1016.60
2017-09-28T06:54:31.269Z,1016.60
2017-09-28T06:55:23.855Z,1016.59
2017-09-28T06:57:20.024Z,1016.60
2017-09-28T06:58:20.473Z,1016.60
2017-09-28T07:00:27.122Z,1016.67
2017-09-28T07:03:25.105Z,1016.69
2017-09-28T07:04:04.116Z,1016.69
2017-09-28T07:05:57.101Z,1016.70
2017-09-28T07:06:57.164Z,1016.65
2017-09-28T07:08:50.183Z,1016.70
2017-09-28T07:11:51.939Z,1016.75
2017-09-28T07:14:13.596Z,1016.79
2017-09-28T07:14:57.575Z,1016.78
2017-09-28T07:16:50.789Z,1016.83
2017-09-28T07:17:50.756Z,1016.85
